sensor_id;sensor_type;location;lat;lon;timestamp;temperature;humidity
37528;DHT22;23372;52.050;4.810;2023-12-14T00:00:06;6.10;99.90
37528;DHT22;23372;52.050;4.810;2023-12-14T00:02:33;6.10;99.90
37528;DHT22;23372;52.050;4.810;2023-12-14T00:04:59;6.10;99.90
37528;DHT22;23372;52.050;4.810;2023-12-14T00:07:24;6.00;99.90
37528;DHT22;23372;52.050;4.810;2023-12-14T00:09:50;6.10;99.90
37528;DHT22;23372;52.050;4.810;2023-12-14T00:12:15;6.10;99.90
37528;DHT22;23372;52.050;4.810;2023-12-14T00:14:41;6.10;99.90
37528;DHT22;23372;52.050;4.810;2023-12-14T00:17:06;6.10;99.90
37528;DHT22;23372;52.050;4.810;2023-12-14T00:19:32;6.10;99.90
37528;DHT22;23372;52.050;4.810;2023-12-14T00:21:57;6.10;99.90
37528;DHT22;23372;52.050;4.810;2023-12-14T00:24:23;6.10;99.90
37528;DHT22;23372;52.050;4.810;2023-12-14T00:26:48;6.10;99.90
37528;DHT22;23372;52.050;4.810;2023-12-14T00:29:14;6.00;99.90
37528;DHT22;23372;52.050;4.810;2023-12-14T00:31:39;6.10;99.90
37528;DHT22;23372;52.050;4.810;2023-12-14T00:34:05;6.00;99.90
37528;DHT22;23372;52.050;4.810;2023-12-14T00:36:31;6.10;99.90
37528;DHT22;23372;52.050;4.810;2023-12-14T00:38:58;6.10;99.90
37528;DHT22;23372;52.050;4.810;2023-12-14T00:41:23;6.00;99.90
37528;DHT22;23372;52.050;4.810;2023-12-14T00:43:49;6.00;99.90
37528;DHT22;23372;52.050;4.810;2023-12-14T00:46:14;6.00;99.90
37528;DHT22;23372;52.050;4.810;2023-12-14T00:48:40;6.00;99.90
37528;DHT22;23372;52.050;4.810;2023-12-14T00:51:05;6.00;99.90
37528;DHT22;23372;52.050;4.810;2023-12-14T00:53:31;6.00;99.90
37528;DHT22;23372;52.050;4.810;2023-12-14T00:55:56;6.00;99.90
37528;DHT22;23372;52.050;4.810;2023-12-14T00:58:22;6.00;99.90
37528;DHT22;23372;52.050;4.810;2023-12-14T01:00:48;6.00;99.90
37528;DHT22;23372;52.050;4.810;2023-12-14T01:03:13;6.00;99.90
37528;DHT22;23372;52.050;4.810;2023-12-14T01:05:39;6.00;99.90
37528;DHT22;23372;52.050;4.810;2023-12-14T01:08:04;6.00;99.90
37528;DHT22;23372;52.050;4.810;2023-12-14T01:10:30;6.00;99.90
37528;DHT22;23372;52.050;4.810;2023-12-14T01:12:56;6.00;99.90
37528;DHT22;23372;52.050;4.810;2023-12-14T01:15:22;6.00;99.90
37528;DHT22;23372;52.050;4.810;2023-12-14T01:17:47;6.00;99.90
37528;DHT22;23372;52.050;4.810;2023-12-14T01:20:13;6.00;99.90
37528;DHT22;23372;52.050;4.810;2023-12-14T01:22:38;6.00;99.90
37528;DHT22;23372;52.050;4.810;2023-12-14T01:25:04;6.00;99.90
37528;DHT22;23372;52.050;4.810;2023-12-14T01:27:29;6.00;99.90
37528;DHT22;23372;52.050;4.810;2023-12-14T01:29:55;6.00;99.90
37528;DHT22;23372;52.050;4.810;2023-12-14T01:32:21;6.00;99.90
37528;DHT22;23372;52.050;4.810;2023-12-14T01:34:46;6.00;99.90
37528;DHT22;23372;52.050;4.810;2023-12-14T01:37:12;5.90;99.90
37528;DHT22;23372;52.050;4.810;2023-12-14T01:39:37;5.90;99.90
37528;DHT22;23372;52.050;4.810;2023-12-14T01:42:03;6.00;99.90
37528;DHT22;23372;52.050;4.810;2023-12-14T01:44:28;6.00;99.90
37528;DHT22;23372;52.050;4.810;2023-12-14T01:46:54;6.00;99.90
37528;DHT22;23372;52.050;4.810;2023-12-14T01:49:19;6.00;99.90
37528;DHT22;23372;52.050;4.810;2023-12-14T01:51:45;6.00;99.90
37528;DHT22;23372;52.050;4.810;2023-12-14T01:54:11;5.90;99.90
37528;DHT22;23372;52.050;4.810;2023-12-14T01:56:36;5.90;99.90
37528;DHT22;23372;52.050;4.810;2023-12-14T01:59:02;5.90;99.90
37528;DHT22;23372;52.050;4.810;2023-12-14T02:01:44;6.00;99.90
37528;DHT22;23372;52.050;4.810;2023-12-14T02:04:13;6.00;99.90
37528;DHT22;23372;52.050;4.810;2023-12-14T02:06:39;6.00;99.90
37528;DHT22;23372;52.050;4.810;2023-12-14T02:09:05;6.00;99.90
37528;DHT22;23372;52.050;4.810;2023-12-14T02:11:31;6.00;99.90
37528;DHT22;23372;52.050;4.810;2023-12-14T02:13:56;6.00;99.90
37528;DHT22;23372;52.050;4.810;2023-12-14T02:16:22;6.00;99.90
37528;DHT22;23372;52.050;4.810;2023-12-14T02:18:47;6.00;99.90
37528;DHT22;23372;52.050;4.810;2023-12-14T02:21:13;6.00;99.90
37528;DHT22;23372;52.050;4.810;2023-12-14T02:23:45;6.00;99.90
37528;DHT22;23372;52.050;4.810;2023-12-14T02:26:11;6.00;99.90
37528;DHT22;23372;52.050;4.810;2023-12-14T02:28:37;5.90;99.90
37528;DHT22;23372;52.050;4.810;2023-12-14T02:31:02;5.90;99.90
37528;DHT22;23372;52.050;4.810;2023-12-14T02:33:28;5.90;99.90
37528;DHT22;23372;52.050;4.810;2023-12-14T02:35:54;5.90;99.90
37528;DHT22;23372;52.050;4.810;2023-12-14T02:38:19;5.90;99.90
37528;DHT22;23372;52.050;4.810;2023-12-14T02:40:45;5.90;99.90
37528;DHT22;23372;52.050;4.810;2023-12-14T02:43:10;5.90;99.90
37528;DHT22;23372;52.050;4.810;2023-12-14T02:45:36;6.00;99.90
37528;DHT22;23372;52.050;4.810;2023-12-14T02:48:01;5.90;99.90
37528;DHT22;23372;52.050;4.810;2023-12-14T02:50:27;5.90;99.90
37528;DHT22;23372;52.050;4.810;2023-12-14T02:52:52;5.90;99.90
37528;DHT22;23372;52.050;4.810;2023-12-14T02:55:18;5.90;99.90
37528;DHT22;23372;52.050;4.810;2023-12-14T02:57:43;5.90;99.90
37528;DHT22;23372;52.050;4.810;2023-12-14T03:00:10;5.90;99.90
37528;DHT22;23372;52.050;4.810;2023-12-14T03:02:36;5.90;99.90
37528;DHT22;23372;52.050;4.810;2023-12-14T03:05:02;5.90;99.90
37528;DHT22;23372;52.050;4.810;2023-12-14T03:07:27;5.90;99.90
37528;DHT22;23372;52.050;4.810;2023-12-14T03:09:53;5.90;99.90
37528;DHT22;23372;52.050;4.810;2023-12-14T03:12:18;5.90;99.90
37528;DHT22;23372;52.050;4.810;2023-12-14T03:14:44;5.90;99.90
37528;DHT22;23372;52.050;4.810;2023-12-14T03:17:09;5.90;99.90
37528;DHT22;23372;52.050;4.810;2023-12-14T03:19:39;5.90;99.90
37528;DHT22;23372;52.050;4.810;2023-12-14T03:22:05;5.90;99.90
37528;DHT22;23372;52.050;4.810;2023-12-14T03:24:30;5.90;99.90
37528;DHT22;23372;52.050;4.810;2023-12-14T03:26:56;5.90;99.90
37528;DHT22;23372;52.050;4.810;2023-12-14T03:29:22;5.90;99.90
37528;DHT22;23372;52.050;4.810;2023-12-14T03:31:48;5.90;99.90
37528;DHT22;23372;52.050;4.810;2023-12-14T03:34:13;5.90;99.90
37528;DHT22;23372;52.050;4.810;2023-12-14T03:36:39;5.80;99.90
37528;DHT22;23372;52.050;4.810;2023-12-14T03:39:04;5.70;99.90
37528;DHT22;23372;52.050;4.810;2023-12-14T03:41:31;5.80;99.90
37528;DHT22;23372;52.050;4.810;2023-12-14T03:43:57;5.70;99.90
37528;DHT22;23372;52.050;4.810;2023-12-14T03:46:22;5.70;99.90
37528;DHT22;23372;52.050;4.810;2023-12-14T03:48:48;5.70;99.90
37528;DHT22;23372;52.050;4.810;2023-12-14T03:51:13;5.70;99.90
37528;DHT22;23372;52.050;4.810;2023-12-14T03:53:39;5.70;99.90
37528;DHT22;23372;52.050;4.810;2023-12-14T03:56:05;5.70;99.90
37528;DHT22;23372;52.050;4.810;2023-12-14T03:58:31;5.70;99.90
37528;DHT22;23372;52.050;4.810;2023-12-14T04:00:56;5.70;99.90
37528;DHT22;23372;52.050;4.810;2023-12-14T04:03:22;5.70;99.90
37528;DHT22;23372;52.050;4.810;2023-12-14T04:05:47;5.70;99.90
37528;DHT22;23372;52.050;4.810;2023-12-14T04:08:13;5.70;99.90
37528;DHT22;23372;52.050;4.810;2023-12-14T04:10:38;5.80;99.90
37528;DHT22;23372;52.050;4.810;2023-12-14T04:13:04;5.80;99.90
37528;DHT22;23372;52.050;4.810;2023-12-14T04:15:29;5.70;99.90
37528;DHT22;23372;52.050;4.810;2023-12-14T04:17:55;5.70;99.90
37528;DHT22;23372;52.050;4.810;2023-12-14T04:20:20;5.70;99.90
37528;DHT22;23372;52.050;4.810;2023-12-14T04:22:46;5.70;99.90
37528;DHT22;23372;52.050;4.810;2023-12-14T04:25:12;5.70;99.90
37528;DHT22;23372;52.050;4.810;2023-12-14T04:27:38;5.70;99.90
37528;DHT22;23372;52.050;4.810;2023-12-14T04:30:04;5.70;99.90
37528;DHT22;23372;52.050;4.810;2023-12-14T04:32:30;5.70;99.90
37528;DHT22;23372;52.050;4.810;2023-12-14T04:34:55;5.70;99.90
37528;DHT22;23372;52.050;4.810;2023-12-14T04:37:21;5.70;99.90
37528;DHT22;23372;52.050;4.810;2023-12-14T04:39:46;5.70;99.90
37528;DHT22;23372;52.050;4.810;2023-12-14T04:42:12;5.70;99.90
37528;DHT22;23372;52.050;4.810;2023-12-14T04:44:37;5.70;99.90
37528;DHT22;23372;52.050;4.810;2023-12-14T04:47:03;5.70;99.90
37528;DHT22;23372;52.050;4.810;2023-12-14T04:49:28;5.70;99.90
37528;DHT22;23372;52.050;4.810;2023-12-14T04:51:54;5.60;99.90
37528;DHT22;23372;52.050;4.810;2023-12-14T04:54:19;5.60;99.90
37528;DHT22;23372;52.050;4.810;2023-12-14T04:56:46;5.60;99.90
37528;DHT22;23372;52.050;4.810;2023-12-14T04:59:11;5.60;99.90
37528;DHT22;23372;52.050;4.810;2023-12-14T05:01:37;5.60;99.90
37528;DHT22;23372;52.050;4.810;2023-12-14T05:04:02;5.60;99.90
37528;DHT22;23372;52.050;4.810;2023-12-14T05:06:28;5.60;99.90
37528;DHT22;23372;52.050;4.810;2023-12-14T05:08:54;5.60;99.90
37528;DHT22;23372;52.050;4.810;2023-12-14T05:11:20;5.60;99.90
37528;DHT22;23372;52.050;4.810;2023-12-14T05:13:45;5.50;99.90
37528;DHT22;23372;52.050;4.810;2023-12-14T05:16:14;5.50;99.90
37528;DHT22;23372;52.050;4.810;2023-12-14T05:18:40;5.50;99.90
37528;DHT22;23372;52.050;4.810;2023-12-14T05:21:05;5.50;99.90
37528;DHT22;23372;52.050;4.810;2023-12-14T05:23:31;5.50;99.90
37528;DHT22;23372;52.050;4.810;2023-12-14T05:25:56;5.40;99.90
37528;DHT22;23372;52.050;4.810;2023-12-14T05:28:22;5.30;99.90
37528;DHT22;23372;52.050;4.810;2023-12-14T05:30:48;5.40;99.90
37528;DHT22;23372;52.050;4.810;2023-12-14T05:33:13;5.40;99.90
37528;DHT22;23372;52.050;4.810;2023-12-14T05:35:39;5.40;99.90
37528;DHT22;23372;52.050;4.810;2023-12-14T05:38:04;5.30;99.90
37528;DHT22;23372;52.050;4.810;2023-12-14T05:40:30;5.40;99.90
37528;DHT22;23372;52.050;4.810;2023-12-14T05:42:56;5.30;99.90
37528;DHT22;23372;52.050;4.810;2023-12-14T05:45:22;5.30;99.90
37528;DHT22;23372;52.050;4.810;2023-12-14T05:47:47;5.30;99.90
37528;DHT22;23372;52.050;4.810;2023-12-14T05:50:13;5.30;99.90
37528;DHT22;23372;52.050;4.810;2023-12-14T05:52:38;5.30;99.90
37528;DHT22;23372;52.050;4.810;2023-12-14T05:55:08;5.30;99.90
37528;DHT22;23372;52.050;4.810;2023-12-14T05:57:35;5.30;99.90
37528;DHT22;23372;52.050;4.810;2023-12-14T06:00:01;5.30;99.90
37528;DHT22;23372;52.050;4.810;2023-12-14T06:02:26;5.30;99.90
37528;DHT22;23372;52.050;4.810;2023-12-14T06:04:52;5.30;99.90
37528;DHT22;23372;52.050;4.810;2023-12-14T06:07:17;5.20;99.90
37528;DHT22;23372;52.050;4.810;2023-12-14T06:09:44;5.20;99.90
37528;DHT22;23372;52.050;4.810;2023-12-14T06:12:10;5.30;99.90
37528;DHT22;23372;52.050;4.810;2023-12-14T06:14:35;5.30;99.90
37528;DHT22;23372;52.050;4.810;2023-12-14T06:17:01;5.30;99.90
37528;DHT22;23372;52.050;4.810;2023-12-14T06:19:26;5.30;99.90
37528;DHT22;23372;52.050;4.810;2023-12-14T06:21:52;5.20;99.90
37528;DHT22;23372;52.050;4.810;2023-12-14T06:24:17;5.20;99.90
37528;DHT22;23372;52.050;4.810;2023-12-14T06:26:46;5.20;99.90
37528;DHT22;23372;52.050;4.810;2023-12-14T06:29:12;5.30;99.90
37528;DHT22;23372;52.050;4.810;2023-12-14T06:31:38;5.30;99.90
37528;DHT22;23372;52.050;4.810;2023-12-14T06:34:04;5.30;99.90
37528;DHT22;23372;52.050;4.810;2023-12-14T06:36:35;5.30;99.90
37528;DHT22;23372;52.050;4.810;2023-12-14T06:39:01;5.30;99.90
37528;DHT22;23372;52.050;4.810;2023-12-14T06:41:28;5.20;99.90
37528;DHT22;23372;52.050;4.810;2023-12-14T06:43:54;5.20;99.90
37528;DHT22;23372;52.050;4.810;2023-12-14T06:46:20;5.20;99.90
37528;DHT22;23372;52.050;4.810;2023-12-14T06:48:47;5.20;99.90
37528;DHT22;23372;52.050;4.810;2023-12-14T06:51:13;5.20;99.90
37528;DHT22;23372;52.050;4.810;2023-12-14T06:53:42;5.20;99.90
37528;DHT22;23372;52.050;4.810;2023-12-14T06:56:09;5.20;99.90
37528;DHT22;23372;52.050;4.810;2023-12-14T06:58:37;5.20;99.90
37528;DHT22;23372;52.050;4.810;2023-12-14T07:01:02;5.20;99.90
37528;DHT22;23372;52.050;4.810;2023-12-14T07:03:28;5.20;99.90
37528;DHT22;23372;52.050;4.810;2023-12-14T07:05:53;5.20;99.90
37528;DHT22;23372;52.050;4.810;2023-12-14T07:08:19;5.20;99.90
37528;DHT22;23372;52.050;4.810;2023-12-14T07:10:44;5.10;99.90
37528;DHT22;23372;52.050;4.810;2023-12-14T07:13:10;5.10;99.90
37528;DHT22;23372;52.050;4.810;2023-12-14T07:15:36;5.10;99.90
37528;DHT22;23372;52.050;4.810;2023-12-14T07:18:01;5.10;99.90
37528;DHT22;23372;52.050;4.810;2023-12-14T07:20:27;5.10;99.90
37528;DHT22;23372;52.050;4.810;2023-12-14T07:22:53;5.20;99.90
37528;DHT22;23372;52.050;4.810;2023-12-14T07:25:18;5.20;99.90
37528;DHT22;23372;52.050;4.810;2023-12-14T07:27:44;5.20;99.90
37528;DHT22;23372;52.050;4.810;2023-12-14T07:30:12;5.20;99.90
37528;DHT22;23372;52.050;4.810;2023-12-14T07:32:37;5.20;99.90
37528;DHT22;23372;52.050;4.810;2023-12-14T07:35:03;5.20;99.90
37528;DHT22;23372;52.050;4.810;2023-12-14T07:37:29;5.20;99.90
37528;DHT22;23372;52.050;4.810;2023-12-14T07:39:55;5.30;99.90
37528;DHT22;23372;52.050;4.810;2023-12-14T07:42:20;5.30;99.90
37528;DHT22;23372;52.050;4.810;2023-12-14T07:44:46;5.30;99.90
37528;DHT22;23372;52.050;4.810;2023-12-14T07:47:12;5.30;99.90
37528;DHT22;23372;52.050;4.810;2023-12-14T07:49:37;5.30;99.90
37528;DHT22;23372;52.050;4.810;2023-12-14T07:52:03;5.40;99.90
37528;DHT22;23372;52.050;4.810;2023-12-14T07:54:29;5.40;99.90
37528;DHT22;23372;52.050;4.810;2023-12-14T07:56:54;5.40;99.90
37528;DHT22;23372;52.050;4.810;2023-12-14T07:59:20;5.40;99.90
37528;DHT22;23372;52.050;4.810;2023-12-14T08:01:46;5.40;99.90
37528;DHT22;23372;52.050;4.810;2023-12-14T08:04:12;5.40;99.90
37528;DHT22;23372;52.050;4.810;2023-12-14T08:06:37;5.30;99.90
37528;DHT22;23372;52.050;4.810;2023-12-14T08:09:06;5.30;99.90
37528;DHT22;23372;52.050;4.810;2023-12-14T08:11:32;5.30;99.90
37528;DHT22;23372;52.050;4.810;2023-12-14T08:13:58;5.30;99.90
37528;DHT22;23372;52.050;4.810;2023-12-14T08:16:24;5.30;99.90
37528;DHT22;23372;52.050;4.810;2023-12-14T08:18:49;5.30;99.90
37528;DHT22;23372;52.050;4.810;2023-12-14T08:21:16;5.20;99.90
37528;DHT22;23372;52.050;4.810;2023-12-14T08:23:42;5.20;99.90
37528;DHT22;23372;52.050;4.810;2023-12-14T08:26:07;5.10;99.90
37528;DHT22;23372;52.050;4.810;2023-12-14T08:28:35;5.10;99.90
37528;DHT22;23372;52.050;4.810;2023-12-14T08:31:01;5.10;99.90
37528;DHT22;23372;52.050;4.810;2023-12-14T08:33:28;5.00;99.90
37528;DHT22;23372;52.050;4.810;2023-12-14T08:35:54;5.10;99.90
37528;DHT22;23372;52.050;4.810;2023-12-14T08:38:20;5.10;99.90
37528;DHT22;23372;52.050;4.810;2023-12-14T08:40:45;5.10;99.90
37528;DHT22;23372;52.050;4.810;2023-12-14T08:43:11;5.00;99.90
37528;DHT22;23372;52.050;4.810;2023-12-14T08:45:36;5.10;99.90
37528;DHT22;23372;52.050;4.810;2023-12-14T08:48:02;5.10;99.90
37528;DHT22;23372;52.050;4.810;2023-12-14T08:50:28;5.20;99.90
37528;DHT22;23372;52.050;4.810;2023-12-14T08:52:53;5.20;99.90
37528;DHT22;23372;52.050;4.810;2023-12-14T08:55:19;5.30;99.90
37528;DHT22;23372;52.050;4.810;2023-12-14T08:57:44;5.40;99.90
37528;DHT22;23372;52.050;4.810;2023-12-14T09:00:10;5.60;99.90
37528;DHT22;23372;52.050;4.810;2023-12-14T09:02:36;5.90;99.90
37528;DHT22;23372;52.050;4.810;2023-12-14T09:05:02;6.20;99.90
37528;DHT22;23372;52.050;4.810;2023-12-14T09:07:30;6.40;99.90
37528;DHT22;23372;52.050;4.810;2023-12-14T09:09:55;6.60;99.90
37528;DHT22;23372;52.050;4.810;2023-12-14T09:12:21;6.90;99.90
37528;DHT22;23372;52.050;4.810;2023-12-14T09:14:47;7.00;99.90
37528;DHT22;23372;52.050;4.810;2023-12-14T09:17:12;7.10;99.90
37528;DHT22;23372;52.050;4.810;2023-12-14T09:19:38;7.30;99.90
37528;DHT22;23372;52.050;4.810;2023-12-14T09:22:04;7.80;99.90
37528;DHT22;23372;52.050;4.810;2023-12-14T09:24:30;8.00;99.90
37528;DHT22;23372;52.050;4.810;2023-12-14T09:26:55;7.80;99.90
37528;DHT22;23372;52.050;4.810;2023-12-14T09:29:21;7.90;99.90
37528;DHT22;23372;52.050;4.810;2023-12-14T09:31:46;8.70;99.90
37528;DHT22;23372;52.050;4.810;2023-12-14T09:34:12;10.40;99.90
37528;DHT22;23372;52.050;4.810;2023-12-14T09:36:41;12.00;99.90
37528;DHT22;23372;52.050;4.810;2023-12-14T09:39:07;13.10;99.90
37528;DHT22;23372;52.050;4.810;2023-12-14T09:41:39;14.30;99.90
37528;DHT22;23372;52.050;4.810;2023-12-14T09:44:05;14.50;99.90
37528;DHT22;23372;52.050;4.810;2023-12-14T09:46:33;14.00;99.90
37528;DHT22;23372;52.050;4.810;2023-12-14T09:49:00;11.90;99.90
37528;DHT22;23372;52.050;4.810;2023-12-14T09:51:26;11.30;99.90
37528;DHT22;23372;52.050;4.810;2023-12-14T09:53:52;10.60;99.90
37528;DHT22;23372;52.050;4.810;2023-12-14T09:56:26;9.90;99.90
37528;DHT22;23372;52.050;4.810;2023-12-14T09:58:52;9.10;99.90
37528;DHT22;23372;52.050;4.810;2023-12-14T10:01:25;8.70;99.90
37528;DHT22;23372;52.050;4.810;2023-12-14T10:06:33;8.10;99.90
37528;DHT22;23372;52.050;4.810;2023-12-14T10:08:58;7.90;99.90
37528;DHT22;23372;52.050;4.810;2023-12-14T10:11:24;7.80;99.90
37528;DHT22;23372;52.050;4.810;2023-12-14T10:13:49;7.80;99.90
37528;DHT22;23372;52.050;4.810;2023-12-14T10:16:32;7.80;99.90
37528;DHT22;23372;52.050;4.810;2023-12-14T10:18:59;7.80;99.90
37528;DHT22;23372;52.050;4.810;2023-12-14T10:21:26;7.80;99.90
37528;DHT22;23372;52.050;4.810;2023-12-14T10:23:52;7.80;99.90
37528;DHT22;23372;52.050;4.810;2023-12-14T10:26:18;7.90;99.90
37528;DHT22;23372;52.050;4.810;2023-12-14T10:28:43;7.90;99.90
37528;DHT22;23372;52.050;4.810;2023-12-14T10:31:09;8.10;99.90
37528;DHT22;23372;52.050;4.810;2023-12-14T10:33:35;8.40;99.90
37528;DHT22;23372;52.050;4.810;2023-12-14T10:36:01;8.80;99.90
37528;DHT22;23372;52.050;4.810;2023-12-14T10:38:29;9.40;99.90
37528;DHT22;23372;52.050;4.810;2023-12-14T10:40:58;9.90;99.90
37528;DHT22;23372;52.050;4.810;2023-12-14T10:43:25;10.40;99.90
37528;DHT22;23372;52.050;4.810;2023-12-14T10:45:51;10.30;99.90
37528;DHT22;23372;52.050;4.810;2023-12-14T10:48:19;10.20;99.90
37528;DHT22;23372;52.050;4.810;2023-12-14T10:50:46;9.80;99.90
37528;DHT22;23372;52.050;4.810;2023-12-14T10:53:13;9.40;99.90
37528;DHT22;23372;52.050;4.810;2023-12-14T10:55:42;9.10;99.90
37528;DHT22;23372;52.050;4.810;2023-12-14T10:58:09;8.70;99.90
37528;DHT22;23372;52.050;4.810;2023-12-14T11:00:36;8.50;99.90
37528;DHT22;23372;52.050;4.810;2023-12-14T11:03:04;8.40;99.90
37528;DHT22;23372;52.050;4.810;2023-12-14T11:05:32;8.20;99.90
37528;DHT22;23372;52.050;4.810;2023-12-14T11:08:03;7.80;99.90
37528;DHT22;23372;52.050;4.810;2023-12-14T11:10:39;7.90;99.90
37528;DHT22;23372;52.050;4.810;2023-12-14T11:13:13;8.00;99.90
37528;DHT22;23372;52.050;4.810;2023-12-14T11:15:48;8.00;99.90
37528;DHT22;23372;52.050;4.810;2023-12-14T11:18:24;7.90;99.90
37528;DHT22;23372;52.050;4.810;2023-12-14T11:20:53;7.90;99.90
37528;DHT22;23372;52.050;4.810;2023-12-14T11:26:04;7.60;99.90
37528;DHT22;23372;52.050;4.810;2023-12-14T11:28:31;7.60;99.90
37528;DHT22;23372;52.050;4.810;2023-12-14T11:30:57;7.40;99.90
37528;DHT22;23372;52.050;4.810;2023-12-14T11:33:23;7.40;99.90
37528;DHT22;23372;52.050;4.810;2023-12-14T11:35:50;7.50;99.90
37528;DHT22;23372;52.050;4.810;2023-12-14T11:38:16;7.50;99.90
37528;DHT22;23372;52.050;4.810;2023-12-14T11:40:43;7.60;99.90
37528;DHT22;23372;52.050;4.810;2023-12-14T11:43:08;7.70;99.90
37528;DHT22;23372;52.050;4.810;2023-12-14T11:45:39;7.70;99.90
37528;DHT22;23372;52.050;4.810;2023-12-14T11:48:12;7.60;99.90
37528;DHT22;23372;52.050;4.810;2023-12-14T11:50:38;7.50;99.90
37528;DHT22;23372;52.050;4.810;2023-12-14T11:53:05;7.50;99.90
37528;DHT22;23372;52.050;4.810;2023-12-14T11:55:32;7.50;99.90
37528;DHT22;23372;52.050;4.810;2023-12-14T11:57:58;7.40;99.90
37528;DHT22;23372;52.050;4.810;2023-12-14T12:00:29;7.30;99.90
37528;DHT22;23372;52.050;4.810;2023-12-14T12:03:31;7.30;99.90
37528;DHT22;23372;52.050;4.810;2023-12-14T12:05:58;7.40;99.90
37528;DHT22;23372;52.050;4.810;2023-12-14T12:08:24;7.40;99.90
37528;DHT22;23372;52.050;4.810;2023-12-14T12:10:49;7.40;99.90
37528;DHT22;23372;52.050;4.810;2023-12-14T12:13:17;7.50;99.90
37528;DHT22;23372;52.050;4.810;2023-12-14T12:15:44;7.50;99.90
37528;DHT22;23372;52.050;4.810;2023-12-14T12:18:11;7.40;99.90
37528;DHT22;23372;52.050;4.810;2023-12-14T12:20:38;7.30;99.90
37528;DHT22;23372;52.050;4.810;2023-12-14T12:23:03;7.10;99.90
37528;DHT22;23372;52.050;4.810;2023-12-14T12:25:30;7.00;99.90
37528;DHT22;23372;52.050;4.810;2023-12-14T12:27:57;7.00;99.90
37528;DHT22;23372;52.050;4.810;2023-12-14T12:30:23;7.00;99.90
37528;DHT22;23372;52.050;4.810;2023-12-14T12:32:49;7.00;99.90
37528;DHT22;23372;52.050;4.810;2023-12-14T12:35:17;6.90;99.90
37528;DHT22;23372;52.050;4.810;2023-12-14T12:37:43;6.90;99.90
37528;DHT22;23372;52.050;4.810;2023-12-14T12:40:09;7.00;99.90
37528;DHT22;23372;52.050;4.810;2023-12-14T12:42:35;7.00;99.90
37528;DHT22;23372;52.050;4.810;2023-12-14T12:45:01;7.00;99.90
37528;DHT22;23372;52.050;4.810;2023-12-14T12:47:26;7.00;99.90
37528;DHT22;23372;52.050;4.810;2023-12-14T12:49:52;7.00;99.90
37528;DHT22;23372;52.050;4.810;2023-12-14T12:52:17;7.00;99.90
37528;DHT22;23372;52.050;4.810;2023-12-14T12:54:43;6.90;99.90
37528;DHT22;23372;52.050;4.810;2023-12-14T12:57:09;6.90;99.90
37528;DHT22;23372;52.050;4.810;2023-12-14T12:59:34;6.90;99.90
37528;DHT22;23372;52.050;4.810;2023-12-14T13:02:00;6.90;99.90
37528;DHT22;23372;52.050;4.810;2023-12-14T13:04:27;6.80;99.90
37528;DHT22;23372;52.050;4.810;2023-12-14T13:06:55;6.70;99.90
37528;DHT22;23372;52.050;4.810;2023-12-14T13:09:21;6.70;99.90
37528;DHT22;23372;52.050;4.810;2023-12-14T13:11:48;6.80;99.90
37528;DHT22;23372;52.050;4.810;2023-12-14T13:14:14;6.70;99.90
37528;DHT22;23372;52.050;4.810;2023-12-14T13:16:40;6.70;99.90
37528;DHT22;23372;52.050;4.810;2023-12-14T13:19:06;6.80;99.90
37528;DHT22;23372;52.050;4.810;2023-12-14T13:21:32;6.70;99.90
37528;DHT22;23372;52.050;4.810;2023-12-14T13:23:59;6.70;99.90
37528;DHT22;23372;52.050;4.810;2023-12-14T13:26:25;6.70;99.90
37528;DHT22;23372;52.050;4.810;2023-12-14T13:28:54;6.70;99.90
37528;DHT22;23372;52.050;4.810;2023-12-14T13:31:20;6.70;99.90
37528;DHT22;23372;52.050;4.810;2023-12-14T13:33:46;6.80;99.90
37528;DHT22;23372;52.050;4.810;2023-12-14T13:36:12;6.80;99.90
37528;DHT22;23372;52.050;4.810;2023-12-14T13:38:38;6.80;99.90
37528;DHT22;23372;52.050;4.810;2023-12-14T13:41:04;6.90;99.90
37528;DHT22;23372;52.050;4.810;2023-12-14T13:43:29;6.80;99.90
37528;DHT22;23372;52.050;4.810;2023-12-14T13:45:55;6.80;99.90
37528;DHT22;23372;52.050;4.810;2023-12-14T13:48:24;6.80;99.90
37528;DHT22;23372;52.050;4.810;2023-12-14T13:50:50;6.80;99.90
37528;DHT22;23372;52.050;4.810;2023-12-14T13:53:16;6.80;99.90
37528;DHT22;23372;52.050;4.810;2023-12-14T13:55:41;6.80;99.90
37528;DHT22;23372;52.050;4.810;2023-12-14T13:58:07;6.70;99.90
37528;DHT22;23372;52.050;4.810;2023-12-14T14:00:32;6.80;99.90
37528;DHT22;23372;52.050;4.810;2023-12-14T14:03:00;6.80;99.90
37528;DHT22;23372;52.050;4.810;2023-12-14T14:05:25;6.80;99.90
37528;DHT22;23372;52.050;4.810;2023-12-14T14:07:51;6.70;99.90
37528;DHT22;23372;52.050;4.810;2023-12-14T14:10:17;6.70;99.90
37528;DHT22;23372;52.050;4.810;2023-12-14T14:12:43;6.70;99.90
37528;DHT22;23372;52.050;4.810;2023-12-14T14:15:08;6.70;99.90
37528;DHT22;23372;52.050;4.810;2023-12-14T14:17:35;6.60;99.90
37528;DHT22;23372;52.050;4.810;2023-12-14T14:20:01;6.60;99.90
37528;DHT22;23372;52.050;4.810;2023-12-14T14:22:26;6.60;99.90
37528;DHT22;23372;52.050;4.810;2023-12-14T14:24:52;6.60;99.90
37528;DHT22;23372;52.050;4.810;2023-12-14T14:27:17;6.60;99.90
37528;DHT22;23372;52.050;4.810;2023-12-14T14:29:43;6.60;99.90
37528;DHT22;23372;52.050;4.810;2023-12-14T14:32:08;6.70;99.90
37528;DHT22;23372;52.050;4.810;2023-12-14T14:34:34;6.70;99.90
37528;DHT22;23372;52.050;4.810;2023-12-14T14:37:00;6.70;99.90
37528;DHT22;23372;52.050;4.810;2023-12-14T14:39:26;6.70;99.90
37528;DHT22;23372;52.050;4.810;2023-12-14T14:41:52;6.70;99.90
37528;DHT22;23372;52.050;4.810;2023-12-14T14:44:18;6.70;99.90
37528;DHT22;23372;52.050;4.810;2023-12-14T14:46:44;6.70;99.90
37528;DHT22;23372;52.050;4.810;2023-12-14T14:49:09;6.70;99.90
37528;DHT22;23372;52.050;4.810;2023-12-14T14:51:35;6.70;99.90
37528;DHT22;23372;52.050;4.810;2023-12-14T14:54:00;6.60;99.90
37528;DHT22;23372;52.050;4.810;2023-12-14T14:56:26;6.70;99.90
37528;DHT22;23372;52.050;4.810;2023-12-14T14:58:51;6.70;99.90
37528;DHT22;23372;52.050;4.810;2023-12-14T15:01:17;6.60;99.90
37528;DHT22;23372;52.050;4.810;2023-12-14T15:03:44;6.60;99.90
37528;DHT22;23372;52.050;4.810;2023-12-14T15:06:09;6.60;99.90
37528;DHT22;23372;52.050;4.810;2023-12-14T15:08:35;6.60;99.90
37528;DHT22;23372;52.050;4.810;2023-12-14T15:11:00;6.60;99.90
37528;DHT22;23372;52.050;4.810;2023-12-14T15:13:26;6.60;99.90
37528;DHT22;23372;52.050;4.810;2023-12-14T15:15:53;6.60;99.90
37528;DHT22;23372;52.050;4.810;2023-12-14T15:18:20;6.60;99.90
37528;DHT22;23372;52.050;4.810;2023-12-14T15:20:45;6.50;99.90
37528;DHT22;23372;52.050;4.810;2023-12-14T15:23:14;6.60;99.90
37528;DHT22;23372;52.050;4.810;2023-12-14T15:25:39;6.50;99.90
37528;DHT22;23372;52.050;4.810;2023-12-14T15:28:05;6.50;99.90
37528;DHT22;23372;52.050;4.810;2023-12-14T15:30:31;6.50;99.90
37528;DHT22;23372;52.050;4.810;2023-12-14T15:32:57;6.50;99.90
37528;DHT22;23372;52.050;4.810;2023-12-14T15:35:22;6.50;99.90
37528;DHT22;23372;52.050;4.810;2023-12-14T15:37:48;6.50;99.90
37528;DHT22;23372;52.050;4.810;2023-12-14T15:40:13;6.50;99.90
37528;DHT22;23372;52.050;4.810;2023-12-14T15:42:39;6.40;99.90